Moreno Valley, CA (92551)

3:25 AM PDT on May 22, 2015 (GMT -0700)
Moreno Valley | | Change Station
CLOSE
Current Station
Personal Weather Station
Location: Moreno Valley, CA
Elevation: 1572 ft
Nearby Weather Stations

Elev 1572 ft 33.91 °N, 117.24 °W | Updated 1 second ago

Overcast
Overcast
52.5 °F
Feels Like 52.5 °F
N
1.0
Wind Variable Wind from NNW
Gusts 5.0 mph

Today
High -- | Low -- °F
--% Chance of Precip.
Yesterday
High -- | Low -- °F
Precip. -- in
5:43 AM 7:48 PM
Waxing Crescent, 20% visible
Pressure 29.96 in
Visibility 10.0 miles
Clouds Mostly Cloudy 7000 ft
Dew Point 45 °F
Humidity 76%
Rainfall 0.00 in
Snow Depth Not available.
UV 0 out of 12
Pollen 4.80 out of 12
Air Quality Not available.
Flu Activity Sporadic
METAR KRIV 220958Z AUTO 30005KT 10SM BKN070 12/06 A2997 RMK AO2 SLP143 T01200063

More Conditions Fewer Conditions

Pressure 29.96 in
Visibility 10.0 miles
Clouds Mostly Cloudy 7000 ft
Dew Point 45 °F
Humidity 76%
Rainfall 0.00 in
Snow Depth Not available.
UV 0 out of 12
Pollen 4.80 out of 12
Air Quality Not available.
Flu Activity Sporadic
METAR KRIV 220958Z AUTO 30005KT 10SM BKN070 12/06 A2997 RMK AO2 SLP143 T01200063

More Conditions Fewer Conditions

10-Day Weather Forecast

Almanac

Astronomy

May. 22, 2015 Rise Set
Actual Time
Civil Twilight
Nautical Twilight
Astronomical Twilight
Moon
Length of Visible Light
Length of Day
Tomorrow will be .
, % of the Moon is Illuminated

Today's Extremes

State Highs State Lows

Community

WunderPhotos

Upload Photos

1,823,197 photos uploaded!

WunderBlogs® & News

Nearby

Air Quality

  Air Quality AQ Index Pollutant
Not available.

Snow Depth

Station Depth Elevation

Earthquake Activity

City Distance Mag. Time & Date
Minimum magnitude displayed is 2.5.

Coastal Water Temperatures

Place Temperature

Stations

Nearby Weather Stations

Station Location Temp. Windchill Dew Point Humidity Wind Precip. Elev Updated Type